createdAt,value
2018-07-02T00:01:00.700Z,24
2018-07-02T00:02:05.333Z,24
2018-07-02T00:03:10.286Z,24
2018-07-02T00:04:15.422Z,24
2018-07-02T00:05:20.655Z,24
2018-07-02T00:06:27.045Z,25
2018-07-02T00:07:34.079Z,25
2018-07-02T00:08:42.171Z,24
2018-07-02T00:09:47.309Z,25
2018-07-02T00:10:52.817Z,25
2018-07-02T00:11:58.329Z,25
2018-07-02T00:13:04.048Z,25
2018-07-02T00:14:09.282Z,25
2018-07-02T00:15:15.810Z,25
2018-07-02T00:16:21.557Z,25
2018-07-02T00:17:27.058Z,25
2018-07-02T00:18:32.278Z,25
2018-07-02T00:19:37.467Z,25
2018-07-02T00:20:42.929Z,25
2018-07-02T00:21:50.096Z,25
2018-07-02T00:22:54.724Z,25
2018-07-02T00:23:59.912Z,25
2018-07-02T00:25:04.836Z,25
2018-07-02T00:26:09.794Z,25
2018-07-02T00:27:15.275Z,25
2018-07-02T00:28:21.548Z,25
2018-07-02T00:29:26.794Z,25
2018-07-02T00:30:31.687Z,25
2018-07-02T00:31:37.219Z,25
2018-07-02T00:32:43.665Z,25
2018-07-02T00:33:51.879Z,25
2018-07-02T00:34:57.349Z,25
2018-07-02T00:36:01.977Z,25
2018-07-02T00:37:06.866Z,25
2018-07-02T00:38:12.393Z,25
2018-07-02T00:39:18.269Z,25
2018-07-02T00:40:23.427Z,26
2018-07-02T00:41:32.044Z,26
2018-07-02T00:42:38.715Z,26
2018-07-02T00:43:44.720Z,27
2018-07-02T00:44:49.414Z,27
2018-07-02T00:45:55.321Z,27
2018-07-02T00:47:01.166Z,26
2018-07-02T00:48:09.221Z,27
2018-07-02T00:49:14.952Z,26
2018-07-02T00:50:20.166Z,26
2018-07-02T00:51:24.481Z,26
2018-07-02T00:52:30.039Z,26
2018-07-02T00:53:35.551Z,26
2018-07-02T00:54:41.805Z,26
2018-07-02T00:55:49.873Z,26
2018-07-02T00:56:55.446Z,26
2018-07-02T00:58:01.216Z,26
2018-07-02T00:59:05.859Z,26
2018-07-02T01:00:10.499Z,26
2018-07-02T01:01:16.037Z,26
2018-07-02T01:02:21.576Z,26
2018-07-02T01:03:27.703Z,26
2018-07-02T01:04:33.474Z,26
2018-07-02T01:05:40.848Z,26
2018-07-02T01:06:46.458Z,26
2018-07-02T01:07:51.966Z,26
2018-07-02T01:08:57.576Z,26
2018-07-02T01:10:03.588Z,26
2018-07-02T01:11:08.937Z,26
2018-07-02T01:12:14.102Z,26
2018-07-02T01:13:19.283Z,26
2018-07-02T01:14:24.194Z,26
2018-07-02T01:15:29.509Z,26
2018-07-02T01:16:34.722Z,26
2018-07-02T01:17:39.662Z,26
2018-07-02T01:18:46.939Z,26
2018-07-02T01:19:52.403Z,26
2018-07-02T01:20:57.361Z,26
2018-07-02T01:22:01.949Z,26
2018-07-02T01:23:08.889Z,26
2018-07-02T01:24:14.639Z,26
2018-07-02T01:25:20.143Z,26
2018-07-02T01:26:25.772Z,26
2018-07-02T01:27:33.230Z,26
2018-07-02T01:28:38.765Z,26
2018-07-02T01:29:43.671Z,26
2018-07-02T01:30:49.762Z,26
2018-07-02T01:31:57.499Z,26
2018-07-02T01:33:02.168Z,26
2018-07-02T01:34:07.889Z,26
2018-07-02T01:35:13.366Z,26
2018-07-02T01:36:18.591Z,26
2018-07-02T01:37:25.587Z,26
2018-07-02T01:38:33.958Z,26
2018-07-02T01:39:39.130Z,26
2018-07-02T01:40:45.255Z,26
2018-07-02T01:41:50.439Z,26
2018-07-02T01:42:56.374Z,26
2018-07-02T01:44:02.072Z,26
2018-07-02T01:45:09.769Z,26
2018-07-02T01:46:14.949Z,26
2018-07-02T01:47:20.437Z,26
2018-07-02T01:48:26.412Z,26
2018-07-02T01:49:33.752Z,26
2018-07-02T01:50:38.934Z,26
2018-07-02T01:51:44.543Z,26
2018-07-02T01:52:50.615Z,26
2018-07-02T01:53:58.376Z,26
2018-07-02T01:55:04.184Z,26
2018-07-02T01:56:09.746Z,26
2018-07-02T01:57:15.237Z,26
2018-07-02T01:58:20.606Z,26
2018-07-02T01:59:28.583Z,26
2018-07-02T02:00:34.309Z,26
2018-07-02T02:01:39.181Z,26
2018-07-02T02:02:44.085Z,26
2018-07-02T02:03:49.787Z,26
2018-07-02T02:04:55.167Z,26
2018-07-02T02:06:02.620Z,26
2018-07-02T02:07:07.781Z,26
2018-07-02T02:08:12.974Z,26
2018-07-02T02:09:17.566Z,26
2018-07-02T02:10:22.990Z,26
2018-07-02T02:11:28.951Z,26
2018-07-02T02:12:37.605Z,26
2018-07-02T02:13:42.499Z,26
2018-07-02T02:14:47.666Z,26
2018-07-02T02:15:53.380Z,26
2018-07-02T02:16:59.269Z,26
2018-07-02T02:18:04.645Z,26
2018-07-02T02:19:12.270Z,26
2018-07-02T02:20:17.740Z,26
2018-07-02T02:21:22.937Z,26
2018-07-02T02:22:28.844Z,26
2018-07-02T02:23:34.560Z,26
2018-07-02T02:24:40.683Z,26
2018-07-02T02:25:49.218Z,26
2018-07-02T02:26:54.698Z,26
2018-07-02T02:28:00.133Z,26
2018-07-02T02:29:05.077Z,26
2018-07-02T02:30:09.759Z,26
2018-07-02T02:31:16.133Z,26
2018-07-02T02:32:23.162Z,26
2018-07-02T02:33:28.697Z,26
2018-07-02T02:34:33.896Z,26
2018-07-02T02:35:39.380Z,26
2018-07-02T02:36:45.072Z,26
2018-07-02T02:37:50.708Z,26
2018-07-02T02:38:58.341Z,26
2018-07-02T02:40:04.207Z,26
2018-07-02T02:41:09.102Z,26
2018-07-02T02:42:14.586Z,26
2018-07-02T02:43:20.998Z,26
2018-07-02T02:44:26.971Z,26
2018-07-02T02:45:34.204Z,26
2018-07-02T02:46:38.794Z,26
2018-07-02T02:47:43.984Z,26
2018-07-02T02:48:49.562Z,26
2018-07-02T02:49:55.031Z,26
2018-07-02T02:51:02.876Z,26
2018-07-02T02:52:09.437Z,26
2018-07-02T02:53:14.959Z,26
2018-07-02T02:54:19.538Z,26
2018-07-02T02:55:24.996Z,26
2018-07-02T02:56:30.202Z,26
2018-07-02T02:57:37.728Z,26
2018-07-02T02:58:42.642Z,26
2018-07-02T02:59:48.095Z,26
2018-07-02T03:00:53.434Z,26
2018-07-02T03:01:58.598Z,26
2018-07-02T03:03:04.538Z,26
2018-07-02T03:04:11.953Z,26
2018-07-02T03:05:18.874Z,26
2018-07-02T03:06:23.466Z,26
2018-07-02T03:07:30.016Z,26
2018-07-02T03:08:34.940Z,25
2018-07-02T03:09:40.678Z,26
2018-07-02T03:10:47.071Z,25
2018-07-02T03:11:53.741Z,25
2018-07-02T03:12:58.699Z,25
2018-07-02T03:14:04.143Z,25
2018-07-02T03:15:09.629Z,25
2018-07-02T03:16:15.321Z,25
2018-07-02T03:17:21.227Z,25
2018-07-02T03:18:29.455Z,25
2018-07-02T03:19:34.626Z,25
2018-07-02T03:20:40.099Z,25
2018-07-02T03:21:45.842Z,25
2018-07-02T03:22:51.290Z,25
2018-07-02T03:23:56.179Z,25
2018-07-02T03:25:04.064Z,25
2018-07-02T03:26:09.815Z,25
2018-07-02T03:27:14.997Z,25
2018-07-02T03:28:20.525Z,25
2018-07-02T03:29:25.435Z,25
2018-07-02T03:30:31.067Z,25
2018-07-02T03:31:37.973Z,25
2018-07-02T03:32:43.161Z,25
2018-07-02T03:33:48.563Z,25
2018-07-02T03:34:54.010Z,25
2018-07-02T03:35:59.936Z,25
2018-07-02T03:37:07.303Z,25
2018-07-02T03:38:12.888Z,25
2018-07-02T03:39:18.333Z,25
2018-07-02T03:40:24.042Z,25
2018-07-02T03:41:29.834Z,25
2018-07-02T03:42:35.892Z,25
2018-07-02T03:43:44.473Z,25
2018-07-02T03:44:49.630Z,25
2018-07-02T03:45:55.481Z,25
2018-07-02T03:47:00.662Z,25
2018-07-02T03:48:06.562Z,24
2018-07-02T03:49:14.077Z,25
2018-07-02T03:50:20.609Z,24
2018-07-02T03:51:26.376Z,24
2018-07-02T03:52:31.813Z,24
2018-07-02T03:53:37.005Z,25
2018-07-02T03:54:43.123Z,24
2018-07-02T03:55:49.656Z,25
2018-07-02T03:56:54.270Z,24
2018-07-02T03:57:59.685Z,24
2018-07-02T03:59:05.145Z,24
2018-07-02T04:00:10.735Z,24
2018-07-02T04:01:18.227Z,24
2018-07-02T04:02:26.289Z,24
2018-07-02T04:03:31.716Z,24
2018-07-02T04:04:36.893Z,24
2018-07-02T04:05:41.518Z,24
2018-07-02T04:06:47.604Z,24
2018-07-02T04:07:55.349Z,24
2018-07-02T04:09:00.224Z,24
2018-07-02T04:10:05.374Z,24
2018-07-02T04:11:10.264Z,24
2018-07-02T04:12:15.269Z,24
2018-07-02T04:13:21.516Z,24
2018-07-02T04:14:29.203Z,24
2018-07-02T04:15:35.308Z,24
2018-07-02T04:16:41.606Z,24
2018-07-02T04:17:49.026Z,24
2018-07-02T04:18:54.893Z,24
2018-07-02T04:20:02.189Z,24
2018-07-02T04:21:06.542Z,24
2018-07-02T04:22:14.768Z,24
2018-07-02T04:23:19.361Z,24
2018-07-02T04:24:27.743Z,24
2018-07-02T04:25:33.792Z,24
2018-07-02T04:26:41.412Z,24
2018-07-02T04:27:48.451Z,24
2018-07-02T04:28:53.654Z,24
2018-07-02T04:29:59.092Z,24
2018-07-02T04:31:05.352Z,24
2018-07-02T04:32:12.090Z,24
2018-07-02T04:33:17.557Z,24
2018-07-02T04:34:22.708Z,24
2018-07-02T04:35:27.622Z,24
2018-07-02T04:36:33.925Z,24
2018-07-02T04:37:41.240Z,24
2018-07-02T04:38:46.794Z,24
2018-07-02T04:39:52.349Z,23
2018-07-02T04:40:58.447Z,23
2018-07-02T04:42:05.958Z,23
2018-07-02T04:43:11.616Z,23
2018-07-02T04:44:20.389Z,24
2018-07-02T04:45:27.392Z,23
2018-07-02T04:46:35.360Z,23
2018-07-02T04:47:41.341Z,23
2018-07-02T04:48:52.142Z,23
2018-07-02T04:50:00.480Z,23
2018-07-02T04:51:07.721Z,23
2018-07-02T04:52:15.403Z,23
2018-07-02T04:53:23.266Z,23
2018-07-02T04:54:28.853Z,23
2018-07-02T04:55:33.849Z,23
2018-07-02T04:56:41.387Z,23
2018-07-02T04:57:49.064Z,23
2018-07-02T04:58:55.076Z,23
2018-07-02T05:00:02.775Z,23
2018-07-02T05:01:07.914Z,23
2018-07-02T05:02:13.421Z,23
2018-07-02T05:03:18.858Z,23
2018-07-02T05:04:24.657Z,23
2018-07-02T05:05:29.245Z,23
2018-07-02T05:06:35.283Z,23
2018-07-02T05:07:40.873Z,23
2018-07-02T05:08:46.833Z,23
2018-07-02T05:09:52.232Z,23
2018-07-02T05:10:57.226Z,23
2018-07-02T05:12:02.394Z,23
2018-07-02T05:13:07.682Z,23
2018-07-02T05:14:12.286Z,23
2018-07-02T05:15:17.855Z,23
2018-07-02T05:16:23.266Z,23
2018-07-02T05:17:28.943Z,23
2018-07-02T05:18:34.077Z,23
2018-07-02T05:19:39.518Z,23
2018-07-02T05:20:44.670Z,23
2018-07-02T05:21:50.041Z,23
2018-07-02T05:22:55.488Z,23
2018-07-02T05:24:00.966Z,23
2018-07-02T05:25:05.925Z,23
2018-07-02T05:26:11.081Z,23
2018-07-02T05:27:16.263Z,23
2018-07-02T05:28:21.982Z,23
2018-07-02T05:29:26.858Z,23
2018-07-02T05:30:32.275Z,23
2018-07-02T05:31:37.727Z,23
2018-07-02T05:32:42.904Z,23
2018-07-02T05:33:48.360Z,23
2018-07-02T05:34:53.809Z,23
2018-07-02T05:35:59.260Z,23
2018-07-02T05:37:04.525Z,23
2018-07-02T05:38:09.426Z,23
2018-07-02T05:39:14.026Z,23
2018-07-02T05:40:19.441Z,23
2018-07-02T05:41:24.601Z,23
2018-07-02T05:42:30.400Z,23
2018-07-02T05:43:35.845Z,23
2018-07-02T05:44:41.022Z,23
2018-07-02T05:45:46.584Z,23
2018-07-02T05:46:52.026Z,23
2018-07-02T05:47:57.468Z,23
2018-07-02T05:49:02.584Z,23
2018-07-02T05:50:07.468Z,23
2018-07-02T05:51:12.625Z,23
2018-07-02T05:52:18.479Z,23
2018-07-02T05:53:23.642Z,23
2018-07-02T05:54:29.399Z,23
2018-07-02T05:55:34.280Z,23
2018-07-02T05:56:39.439Z,23
2018-07-02T05:57:44.902Z,23
2018-07-02T05:58:50.353Z,23
2018-07-02T05:59:55.790Z,23
2018-07-02T06:01:01.224Z,23
2018-07-02T06:02:05.819Z,23
2018-07-02T06:03:11.262Z,23
2018-07-02T06:04:16.717Z,23
2018-07-02T06:05:21.585Z,23
2018-07-02T06:06:27.012Z,23
2018-07-02T06:07:32.039Z,23
2018-07-02T06:08:36.629Z,23
2018-07-02T06:09:42.130Z,23
2018-07-02T06:10:47.555Z,23
2018-07-02T06:11:53.067Z,23
2018-07-02T06:12:58.244Z,23
2018-07-02T06:14:02.837Z,23
2018-07-02T06:15:07.441Z,23
2018-07-02T06:16:13.169Z,23
2018-07-02T06:17:18.335Z,23
2018-07-02T06:18:23.768Z,23
2018-07-02T06:19:43.365Z,23
2018-07-02T06:20:48.516Z,23
2018-07-02T06:21:53.636Z,23
2018-07-02T06:22:58.827Z,23
2018-07-02T06:24:03.743Z,23
2018-07-02T06:25:09.148Z,23
2018-07-02T06:26:14.294Z,23
2018-07-02T06:27:19.457Z,23
2018-07-02T06:28:24.873Z,23
2018-07-02T06:29:30.034Z,23
2018-07-02T06:30:35.606Z,22
2018-07-02T06:31:40.942Z,22
2018-07-02T06:32:46.107Z,23
2018-07-02T06:33:51.803Z,22
2018-07-02T06:34:56.401Z,22
2018-07-02T06:36:01.274Z,22
2018-07-02T06:37:06.440Z,22
2018-07-02T06:38:11.317Z,22
2018-07-02T06:39:16.788Z,22
2018-07-02T06:40:22.330Z,22
2018-07-02T06:41:27.219Z,22
2018-07-02T06:42:32.532Z,22
2018-07-02T06:43:37.418Z,22
2018-07-02T06:44:42.012Z,22
2018-07-02T06:45:47.772Z,22
2018-07-02T06:46:53.214Z,22
2018-07-02T06:47:57.852Z,22
2018-07-02T06:49:02.724Z,22
2018-07-02T06:50:08.163Z,22
2018-07-02T06:51:13.056Z,22
2018-07-02T06:52:18.554Z,22
2018-07-02T06:53:24.337Z,22
2018-07-02T06:54:30.188Z,22
2018-07-02T06:55:35.063Z,22
2018-07-02T06:56:39.969Z,22
2018-07-02T06:57:45.767Z,22
2018-07-02T06:58:51.215Z,22
2018-07-02T06:59:56.113Z,22
2018-07-02T07:01:01.802Z,22
2018-07-02T07:02:06.125Z,22
2018-07-02T07:03:11.031Z,22
2018-07-02T07:04:16.451Z,22
2018-07-02T07:05:21.913Z,22
2018-07-02T07:06:27.479Z,22
2018-07-02T07:07:33.245Z,22
2018-07-02T07:08:38.205Z,22
2018-07-02T07:09:43.896Z,22
2018-07-02T07:10:49.053Z,22
2018-07-02T07:11:53.918Z,22
2018-07-02T07:12:59.682Z,22
2018-07-02T07:14:04.277Z,22
2018-07-02T07:15:08.879Z,22
2018-07-02T07:16:13.882Z,22
2018-07-02T07:17:19.039Z,22
2018-07-02T07:18:24.489Z,22
2018-07-02T07:19:30.203Z,22
2018-07-02T07:20:35.645Z,22
2018-07-02T07:21:40.240Z,22
2018-07-02T07:22:45.611Z,22
2018-07-02T07:23:51.063Z,22
2018-07-02T07:24:56.471Z,22
2018-07-02T07:26:02.191Z,22
2018-07-02T07:27:07.366Z,22
2018-07-02T07:28:13.130Z,22
2018-07-02T07:29:18.323Z,22
2018-07-02T07:30:23.188Z,22
2018-07-02T07:31:43.258Z,22
2018-07-02T07:32:48.689Z,22
2018-07-02T07:33:54.386Z,22
2018-07-02T07:34:59.542Z,22
2018-07-02T07:36:04.705Z,21
2018-07-02T07:37:10.113Z,21
2018-07-02T07:38:15.470Z,22
2018-07-02T07:39:20.911Z,21
2018-07-02T07:40:26.753Z,21
2018-07-02T07:41:32.212Z,21
2018-07-02T07:42:37.734Z,21
2018-07-02T07:43:42.910Z,21
2018-07-02T07:44:47.935Z,21
2018-07-02T07:45:54.017Z,21
2018-07-02T07:46:59.193Z,21
2018-07-02T07:48:04.635Z,21
2018-07-02T07:49:09.995Z,21
2018-07-02T07:50:14.608Z,21
2018-07-02T07:51:19.207Z,21
2018-07-02T07:52:24.915Z,21
2018-07-02T07:53:29.807Z,21
2018-07-02T07:54:35.520Z,21
2018-07-02T07:55:40.704Z,21
2018-07-02T07:56:46.154Z,21
2018-07-02T07:57:51.917Z,21
2018-07-02T07:58:57.072Z,21
2018-07-02T08:00:01.975Z,21
2018-07-02T08:01:07.380Z,21
2018-07-02T08:02:12.550Z,21
2018-07-02T08:03:17.723Z,21
2018-07-02T08:04:23.524Z,21
2018-07-02T08:05:28.394Z,21
2018-07-02T08:06:33.948Z,21
2018-07-02T08:07:39.395Z,21
2018-07-02T08:08:44.275Z,21
2018-07-02T08:09:49.586Z,21
2018-07-02T08:10:54.734Z,21
2018-07-02T08:11:59.896Z,21
2018-07-02T08:13:04.739Z,21
2018-07-02T08:14:09.896Z,21
2018-07-02T08:15:15.534Z,21
2018-07-02T08:16:20.672Z,21
2018-07-02T08:17:25.295Z,21
2018-07-02T08:18:30.524Z,21
2018-07-02T08:19:35.962Z,21
2018-07-02T08:20:41.406Z,21
2018-07-02T08:21:46.973Z,21
2018-07-02T08:22:51.572Z,21
2018-07-02T08:23:56.740Z,21
2018-07-02T08:25:01.977Z,21
2018-07-02T08:26:07.168Z,21
2018-07-02T08:27:12.327Z,21
2018-07-02T08:28:17.340Z,21
2018-07-02T08:29:22.988Z,21
2018-07-02T08:30:28.518Z,21
2018-07-02T08:31:33.976Z,21
2018-07-02T08:32:38.853Z,21
2018-07-02T08:33:44.371Z,21
2018-07-02T08:34:49.539Z,21
2018-07-02T08:35:55.337Z,21
2018-07-02T08:37:01.033Z,21
2018-07-02T08:38:05.640Z,21
2018-07-02T08:39:09.380Z,21
2018-07-02T08:40:15.216Z,21
2018-07-02T08:41:20.065Z,21
2018-07-02T08:43:45.662Z,21
2018-07-02T08:44:50.540Z,21
2018-07-02T08:45:56.259Z,21
2018-07-02T08:47:01.430Z,21
2018-07-02T08:48:06.599Z,21
2018-07-02T08:49:12.501Z,21
2018-07-02T08:50:17.101Z,21
2018-07-02T08:51:22.851Z,21
2018-07-02T08:52:28.720Z,21
2018-07-02T08:53:34.167Z,21
2018-07-02T08:54:39.497Z,21
2018-07-02T08:55:45.020Z,21
2018-07-02T08:56:50.498Z,21
2018-07-02T08:57:56.244Z,21
2018-07-02T08:59:01.641Z,21
2018-07-02T09:00:07.070Z,21
2018-07-02T09:01:12.623Z,21
2018-07-02T09:02:17.515Z,21
2018-07-02T09:03:22.398Z,20
2018-07-02T09:04:28.157Z,21
2018-07-02T09:05:33.519Z,21
2018-07-02T09:06:38.648Z,21
2018-07-02T09:07:44.132Z,20
2018-07-02T09:08:49.303Z,21
2018-07-02T09:09:54.981Z,21
2018-07-02T09:11:00.187Z,21
2018-07-02T09:12:05.489Z,20
2018-07-02T09:13:11.006Z,20
2018-07-02T09:14:16.165Z,21
2018-07-02T09:15:21.052Z,20
2018-07-02T09:16:27.066Z,20
2018-07-02T09:17:31.859Z,20
2018-07-02T09:18:37.547Z,20
2018-07-02T09:19:42.629Z,20
2018-07-02T09:20:48.281Z,20
2018-07-02T09:21:54.160Z,21
2018-07-02T09:22:59.563Z,21
2018-07-02T09:24:04.996Z,20
2018-07-02T09:25:10.517Z,21
2018-07-02T09:26:15.667Z,21
2018-07-02T09:27:21.328Z,21
2018-07-02T09:28:26.905Z,21
2018-07-02T09:29:32.372Z,20
2018-07-02T09:30:37.845Z,20
2018-07-02T09:31:43.461Z,20
2018-07-02T09:32:48.904Z,20
2018-07-02T09:33:54.296Z,20
2018-07-02T09:34:59.963Z,20
2018-07-02T09:36:05.279Z,20
2018-07-02T09:37:10.975Z,20
2018-07-02T09:38:16.156Z,20
2018-07-02T09:39:21.640Z,20
2018-07-02T09:40:27.257Z,20
2018-07-02T09:41:32.471Z,20
2018-07-02T09:42:38.363Z,20
2018-07-02T09:43:43.260Z,20
2018-07-02T09:44:48.413Z,20
2018-07-02T09:45:53.869Z,20
2018-07-02T09:46:59.520Z,20
2018-07-02T09:48:04.694Z,20
2018-07-02T09:49:10.470Z,20
2018-07-02T09:50:15.916Z,20
2018-07-02T09:51:21.442Z,20
2018-07-02T09:52:26.991Z,21
2018-07-02T09:53:32.239Z,21
2018-07-02T09:54:37.379Z,21
2018-07-02T09:55:42.546Z,21
2018-07-02T09:56:47.706Z,21
2018-07-02T09:57:53.134Z,21
2018-07-02T09:58:58.576Z,21
2018-07-02T10:00:03.456Z,21
2018-07-02T10:01:08.400Z,21
2018-07-02T10:02:13.010Z,21
2018-07-02T10:03:18.767Z,21
2018-07-02T10:04:24.457Z,21
2018-07-02T10:05:29.219Z,21
2018-07-02T10:06:35.234Z,21
2018-07-02T10:07:40.528Z,21
2018-07-02T10:08:45.925Z,21
2018-07-02T10:09:51.615Z,21
2018-07-02T10:10:56.674Z,21
2018-07-02T10:12:01.570Z,21
2018-07-02T10:13:06.985Z,21
2018-07-02T10:14:12.153Z,21
2018-07-02T10:15:17.335Z,21
2018-07-02T10:16:22.855Z,21
2018-07-02T10:17:28.287Z,21
2018-07-02T10:18:33.538Z,21
2018-07-02T10:19:38.416Z,21
2018-07-02T10:20:43.583Z,21
2018-07-02T10:21:49.175Z,21
2018-07-02T10:22:54.338Z,21
2018-07-02T10:23:59.975Z,21
2018-07-02T10:25:05.245Z,21
2018-07-02T10:26:10.409Z,21
2018-07-02T10:27:15.902Z,21
2018-07-02T10:28:21.321Z,21
2018-07-02T10:29:26.720Z,21
2018-07-02T10:30:32.764Z,21
2018-07-02T10:31:38.244Z,21
2018-07-02T10:32:43.816Z,21
2018-07-02T10:33:49.538Z,21
2018-07-02T10:34:55.737Z,21
2018-07-02T10:36:01.311Z,21
2018-07-02T10:37:06.163Z,21
2018-07-02T10:38:11.353Z,21
2018-07-02T10:39:16.810Z,21
2018-07-02T10:40:22.538Z,21
2018-07-02T10:41:27.688Z,21
2018-07-02T10:42:32.651Z,21
2018-07-02T10:43:37.828Z,21
2018-07-02T10:44:42.713Z,21
2018-07-02T10:45:48.119Z,21
2018-07-02T10:46:53.063Z,21
2018-07-02T10:47:58.671Z,21
2018-07-02T10:49:04.218Z,21
2018-07-02T10:50:09.665Z,21
2018-07-02T10:51:14.853Z,21
2018-07-02T10:52:20.268Z,21
2018-07-02T10:53:25.563Z,21
2018-07-02T10:54:30.799Z,21
2018-07-02T10:55:35.814Z,21
2018-07-02T10:56:41.099Z,21
2018-07-02T10:57:46.745Z,21
2018-07-02T10:58:51.894Z,21
2018-07-02T10:59:57.058Z,21
2018-07-02T11:01:02.680Z,21
2018-07-02T11:02:07.574Z,21
2018-07-02T11:03:13.025Z,21
2018-07-02T11:04:18.159Z,21
2018-07-02T11:05:23.596Z,21
2018-07-02T11:06:28.867Z,21
2018-07-02T11:07:34.194Z,21
2018-07-02T11:08:39.067Z,21
2018-07-02T11:09:44.359Z,21
2018-07-02T11:10:49.240Z,21
2018-07-02T11:11:54.414Z,21
2018-07-02T11:12:59.936Z,21
2018-07-02T11:14:05.103Z,21
2018-07-02T11:15:10.549Z,21
2018-07-02T11:16:16.082Z,21
2018-07-02T11:17:21.247Z,21
2018-07-02T11:18:26.638Z,21
2018-07-02T11:19:32.076Z,21
2018-07-02T11:20:36.672Z,21
2018-07-02T11:21:42.377Z,21
2018-07-02T11:22:47.254Z,21
2018-07-02T11:23:52.707Z,21
2018-07-02T11:24:58.495Z,21
2018-07-02T11:26:03.089Z,21
2018-07-02T11:27:08.417Z,21
2018-07-02T11:28:14.132Z,21
2018-07-02T11:29:19.016Z,21
2018-07-02T11:30:24.211Z,21
2018-07-02T11:31:30.230Z,21
2018-07-02T11:32:35.874Z,21
2018-07-02T11:33:41.578Z,21
2018-07-02T11:34:46.468Z,21
2018-07-02T11:35:51.913Z,21
2018-07-02T11:36:57.238Z,21
2018-07-02T11:38:02.319Z,21
2018-07-02T11:39:07.774Z,21
2018-07-02T11:40:13.674Z,21
2018-07-02T11:41:19.121Z,21
2018-07-02T11:43:45.039Z,21
2018-07-02T11:44:49.932Z,21
2018-07-02T11:45:55.328Z,21
2018-07-02T11:47:00.774Z,21
2018-07-02T11:48:04.810Z,21
2018-07-02T11:49:10.043Z,21
2018-07-02T11:50:15.327Z,21
2018-07-02T11:51:20.230Z,21
2018-07-02T11:52:40.733Z,21
2018-07-02T11:53:45.880Z,21
2018-07-02T11:54:51.030Z,21
2018-07-02T11:55:56.478Z,21
2018-07-02T11:57:01.657Z,21
2018-07-02T11:58:06.360Z,21
2018-07-02T11:59:11.529Z,21
2018-07-02T12:00:16.696Z,21
2018-07-02T12:01:22.501Z,21
2018-07-02T12:02:27.675Z,22
2018-07-02T12:03:33.551Z,21
2018-07-02T12:04:38.732Z,21
2018-07-02T12:05:44.180Z,22
2018-07-02T12:06:49.413Z,21
2018-07-02T12:07:54.904Z,22
2018-07-02T12:09:00.356Z,22
2018-07-02T12:10:05.575Z,22
2018-07-02T12:11:10.737Z,22
2018-07-02T12:12:15.656Z,22
2018-07-02T12:13:21.349Z,22
2018-07-02T12:14:26.531Z,22
2018-07-02T12:15:31.775Z,22
2018-07-02T12:16:36.857Z,22
2018-07-02T12:17:42.026Z,22
2018-07-02T12:18:47.467Z,22
2018-07-02T12:19:52.933Z,22
2018-07-02T12:20:58.083Z,22
2018-07-02T12:22:03.241Z,22
2018-07-02T12:23:08.418Z,22
2018-07-02T12:24:14.072Z,22
2018-07-02T12:25:19.798Z,22
2018-07-02T12:26:25.237Z,22
2018-07-02T12:27:30.666Z,22
2018-07-02T12:28:35.536Z,22
2018-07-02T12:29:40.995Z,22
2018-07-02T12:30:46.414Z,22
2018-07-02T12:31:51.011Z,22
2018-07-02T12:32:56.179Z,22
2018-07-02T12:34:01.421Z,22
2018-07-02T12:35:06.944Z,22
2018-07-02T12:36:12.379Z,22
2018-07-02T12:37:18.072Z,22
2018-07-02T12:38:23.238Z,22
2018-07-02T12:39:29.093Z,22
2018-07-02T12:40:34.268Z,22
2018-07-02T12:41:39.491Z,22
2018-07-02T12:42:45.211Z,22
2018-07-02T12:43:50.382Z,22
2018-07-02T12:44:55.532Z,22
2018-07-02T12:46:01.002Z,22
2018-07-02T12:47:05.325Z,22
2018-07-02T12:48:10.767Z,22
2018-07-02T12:49:16.204Z,22
2018-07-02T12:50:21.649Z,22
2018-07-02T12:51:27.098Z,22
2018-07-02T12:52:32.267Z,22
2018-07-02T12:53:37.147Z,22
2018-07-02T12:54:42.845Z,22
2018-07-02T12:55:48.039Z,22
2018-07-02T12:56:53.464Z,22
2018-07-02T12:57:58.870Z,22
2018-07-02T12:59:03.178Z,22
2018-07-02T13:00:08.631Z,22
2018-07-02T13:01:13.539Z,22
2018-07-02T13:02:18.826Z,22
2018-07-02T13:03:24.001Z,22
2018-07-02T13:04:44.099Z,22
2018-07-02T13:05:49.008Z,22
2018-07-02T13:06:54.425Z,22
2018-07-02T13:08:00.224Z,22
2018-07-02T13:09:05.032Z,22
2018-07-02T13:10:10.733Z,22
2018-07-02T13:11:16.168Z,22
2018-07-02T13:12:21.610Z,22
2018-07-02T13:13:28.015Z,22
2018-07-02T13:14:33.341Z,22
2018-07-02T13:15:38.564Z,22
2018-07-02T13:16:43.165Z,22
2018-07-02T13:17:48.540Z,22
2018-07-02T13:18:53.992Z,22
2018-07-02T13:19:59.067Z,22
2018-07-02T13:21:04.240Z,22
2018-07-02T13:22:08.848Z,22
2018-07-02T13:23:14.293Z,22
2018-07-02T13:24:19.184Z,22
2018-07-02T13:25:24.333Z,22
2018-07-02T13:26:29.515Z,22
2018-07-02T13:27:35.263Z,22
2018-07-02T13:28:40.928Z,22
2018-07-02T13:29:45.803Z,22
2018-07-02T13:30:51.380Z,22
2018-07-02T13:31:56.257Z,22
2018-07-02T13:33:01.424Z,22
2018-07-02T13:34:06.037Z,22
2018-07-02T13:35:11.496Z,22
2018-07-02T13:36:16.471Z,22
2018-07-02T13:37:21.968Z,22
2018-07-02T13:38:27.133Z,22
2018-07-02T13:39:31.730Z,22
2018-07-02T13:40:37.171Z,22
2018-07-02T13:41:42.278Z,22
2018-07-02T13:42:47.906Z,22
2018-07-02T13:43:53.100Z,22
2018-07-02T13:44:58.597Z,22
2018-07-02T13:46:04.162Z,23
2018-07-02T13:47:09.370Z,23
2018-07-02T13:48:14.556Z,23
2018-07-02T13:49:20.331Z,23
2018-07-02T13:50:25.373Z,23
2018-07-02T13:51:30.679Z,23
2018-07-02T13:52:35.290Z,23
2018-07-02T13:53:40.194Z,23
2018-07-02T13:54:45.756Z,23
2018-07-02T13:55:51.217Z,23
2018-07-02T13:56:56.665Z,23
2018-07-02T13:58:02.178Z,23
2018-07-02T13:59:07.628Z,23
2018-07-02T14:00:12.848Z,23
2018-07-02T14:01:17.887Z,23
2018-07-02T14:02:23.067Z,23
2018-07-02T14:03:28.487Z,23
2018-07-02T14:04:33.098Z,23
2018-07-02T14:05:37.713Z,23
2018-07-02T14:06:42.982Z,23
2018-07-02T14:07:48.027Z,23
2018-07-02T14:08:53.189Z,23
2018-07-02T14:09:58.701Z,23
2018-07-02T14:11:03.860Z,23
2018-07-02T14:12:08.769Z,23
2018-07-02T14:13:14.195Z,23
2018-07-02T14:14:19.421Z,23
2018-07-02T14:16:45.448Z,23
2018-07-02T14:17:50.605Z,23
2018-07-02T14:18:56.041Z,23
2018-07-02T14:20:01.567Z,23
2018-07-02T14:21:06.099Z,23
2018-07-02T14:22:11.684Z,23
2018-07-02T14:23:16.848Z,23
2018-07-02T14:24:22.027Z,23
2018-07-02T14:25:27.801Z,23
2018-07-02T14:26:32.851Z,23
2018-07-02T14:27:38.643Z,23
2018-07-02T14:28:44.107Z,23
2018-07-02T14:29:49.553Z,23
2018-07-02T14:30:54.723Z,23
2018-07-02T14:31:59.911Z,23
2018-07-02T14:33:05.442Z,23
2018-07-02T14:34:11.472Z,23
2018-07-02T14:35:16.643Z,23
2018-07-02T14:36:21.820Z,23
2018-07-02T14:37:27.408Z,23
2018-07-02T14:38:32.204Z,23
2018-07-02T14:39:37.333Z,23
2018-07-02T14:40:42.776Z,23
2018-07-02T14:41:47.949Z,23
2018-07-02T14:42:53.661Z,23
2018-07-02T14:43:58.832Z,23
2018-07-02T14:45:04.028Z,23
2018-07-02T14:46:11.759Z,23
2018-07-02T14:47:17.240Z,23
2018-07-02T14:48:23.023Z,23
2018-07-02T14:49:28.398Z,23
2018-07-02T14:50:33.844Z,23
2018-07-02T14:51:39.272Z,23
2018-07-02T14:52:44.428Z,23
2018-07-02T14:53:49.876Z,23
2018-07-02T14:54:55.605Z,23
2018-07-02T14:56:00.775Z,23
2018-07-02T14:57:05.659Z,23
2018-07-02T14:58:11.081Z,23
2018-07-02T14:59:16.242Z,23
2018-07-02T15:00:21.688Z,23
2018-07-02T15:01:27.111Z,23
2018-07-02T15:02:31.992Z,23
2018-07-02T15:03:37.275Z,23
2018-07-02T15:04:42.436Z,23
2018-07-02T15:05:47.624Z,22
2018-07-02T15:06:52.580Z,23
2018-07-02T15:07:57.751Z,22
2018-07-02T15:09:03.228Z,22
2018-07-02T15:10:08.372Z,22
2018-07-02T15:11:13.576Z,22
2018-07-02T15:12:18.736Z,22
2018-07-02T15:13:24.180Z,22
2018-07-02T15:14:28.806Z,22
2018-07-02T15:15:34.202Z,22
2018-07-02T15:16:39.349Z,22
2018-07-02T15:17:44.803Z,22
2018-07-02T15:18:50.507Z,22
2018-07-02T15:19:55.955Z,22
2018-07-02T15:21:01.108Z,22
2018-07-02T15:22:06.116Z,22
2018-07-02T15:23:11.573Z,22
2018-07-02T15:24:17.025Z,22
2018-07-02T15:25:22.730Z,22
2018-07-02T15:26:27.885Z,22
2018-07-02T15:27:33.510Z,22
2018-07-02T15:28:38.659Z,22
2018-07-02T15:29:43.835Z,22
2018-07-02T15:30:48.963Z,22
2018-07-02T15:31:54.402Z,22
2018-07-02T15:32:59.297Z,22
2018-07-02T15:34:04.439Z,22
2018-07-02T15:35:11.038Z,22
2018-07-02T15:36:16.483Z,22
2018-07-02T15:37:21.808Z,22
2018-07-02T15:38:26.413Z,22
2018-07-02T15:39:31.574Z,22